createdAt,value
2022-10-07T00:02:21.758Z,10.38
2022-10-07T00:04:51.101Z,10.38
2022-10-07T00:07:20.353Z,10.38
2022-10-07T00:09:49.557Z,10.34
2022-10-07T00:12:19.115Z,10.30
2022-10-07T00:14:48.403Z,10.28
2022-10-07T00:17:17.682Z,10.29
2022-10-07T00:19:46.955Z,10.26
2022-10-07T00:22:16.258Z,10.26
2022-10-07T00:24:45.608Z,10.25
2022-10-07T00:27:14.842Z,10.22
2022-10-07T00:29:44.146Z,10.22
2022-10-07T00:32:13.384Z,10.23
2022-10-07T00:34:42.627Z,10.23
2022-10-07T00:37:11.866Z,10.21
2022-10-07T00:39:41.116Z,10.19
2022-10-07T00:42:10.421Z,10.18
2022-10-07T00:44:49.550Z,10.13
2022-10-07T00:47:36.780Z,10.15
2022-10-07T00:50:30.570Z,10.12
2022-10-07T00:53:04.703Z,10.02
2022-10-07T00:55:35.420Z,10.07
2022-10-07T00:58:08.810Z,10.06
2022-10-07T01:00:42.552Z,10.06
2022-10-07T01:03:11.860Z,10.06
2022-10-07T01:05:41.244Z,10.04
2022-10-07T01:08:15.721Z,10.01
2022-10-07T01:11:01.287Z,10.07
2022-10-07T01:13:42.767Z,10.03
2022-10-07T01:16:29.599Z,10.06
2022-10-07T01:19:21.289Z,10.02
2022-10-07T01:22:14.185Z,10.03
2022-10-07T01:24:46.659Z,10.05
2022-10-07T01:27:21.604Z,10.06
2022-10-07T01:29:58.549Z,10.07
2022-10-07T01:32:36.744Z,10.05
2022-10-07T01:35:10.623Z,10.04
2022-10-07T01:37:46.741Z,10.00
2022-10-07T01:40:20.823Z,9.99
2022-10-07T01:42:51.986Z,10.00
2022-10-07T01:45:23.405Z,9.98
2022-10-07T01:47:53.664Z,10.02
2022-10-07T01:50:28.722Z,10.01
2022-10-07T01:53:12.937Z,10.00
2022-10-07T01:56:07.611Z,9.97
2022-10-07T01:58:49.832Z,9.91
2022-10-07T02:01:31.628Z,9.90
2022-10-07T02:04:39.055Z,9.87
2022-10-07T02:07:21.895Z,9.81
2022-10-07T02:09:51.311Z,9.83
2022-10-07T02:12:31.336Z,9.82
2022-10-07T02:15:47.806Z,9.85
2022-10-07T02:18:20.390Z,9.81
2022-10-07T02:20:51.998Z,9.81
2022-10-07T02:23:25.460Z,9.79
2022-10-07T02:25:57.467Z,9.77
2022-10-07T02:28:28.092Z,9.74
2022-10-07T02:31:02.753Z,9.77
2022-10-07T02:33:36.691Z,9.77
2022-10-07T02:36:13.823Z,9.76
2022-10-07T02:38:43.526Z,9.75
2022-10-07T02:41:33.831Z,9.77
2022-10-07T02:44:34.183Z,9.77
2022-10-07T02:47:06.339Z,9.74
2022-10-07T02:49:40.346Z,9.71
2022-10-07T02:52:14.022Z,9.71
2022-10-07T02:54:48.582Z,9.70
2022-10-07T02:57:21.691Z,9.68
2022-10-07T02:59:53.854Z,9.65
2022-10-07T03:02:30.306Z,9.65
2022-10-07T03:05:01.010Z,9.67
2022-10-07T03:07:31.374Z,9.70
2022-10-07T03:10:01.873Z,9.68
2022-10-07T03:12:31.384Z,9.61
2022-10-07T03:15:01.468Z,9.69
2022-10-07T03:17:30.826Z,9.60
2022-10-07T03:20:00.564Z,9.62
2022-10-07T03:22:29.955Z,9.64
2022-10-07T03:24:59.332Z,9.63
2022-10-07T03:27:28.939Z,9.62
2022-10-07T03:29:58.649Z,9.62
2022-10-07T03:32:29.078Z,9.63
2022-10-07T03:34:59.457Z,9.62
2022-10-07T03:37:29.700Z,9.54
2022-10-07T03:40:01.437Z,9.46
2022-10-07T03:42:30.754Z,9.56
2022-10-07T03:45:00.224Z,9.45
2022-10-07T03:47:30.684Z,9.51
2022-10-07T03:49:59.986Z,9.49
2022-10-07T03:52:29.281Z,9.46
2022-10-07T03:54:59.535Z,9.44
2022-10-07T03:57:41.487Z,9.45
2022-10-07T04:00:11.439Z,9.46
2022-10-07T04:02:44.277Z,9.47
2022-10-07T04:05:15.900Z,9.46
2022-10-07T04:07:47.771Z,9.45
2022-10-07T04:10:20.455Z,9.45
2022-10-07T04:12:52.347Z,9.47
2022-10-07T04:15:23.067Z,9.47
2022-10-07T04:17:58.707Z,9.52
2022-10-07T04:20:29.166Z,9.48
2022-10-07T04:22:58.685Z,9.49
2022-10-07T04:25:38.570Z,9.47
2022-10-07T04:28:20.313Z,9.48
2022-10-07T04:30:54.054Z,9.49
2022-10-07T04:33:30.052Z,9.47
2022-10-07T04:36:05.513Z,9.50
2022-10-07T04:38:35.530Z,9.46
2022-10-07T04:41:08.261Z,9.45
2022-10-07T04:43:39.713Z,9.48
2022-10-07T04:46:15.347Z,9.50
2022-10-07T04:48:50.731Z,9.50
2022-10-07T04:51:25.379Z,9.47
2022-10-07T04:53:58.346Z,9.34
2022-10-07T04:56:33.393Z,9.46
2022-10-07T04:59:05.162Z,9.43
2022-10-07T05:01:34.857Z,9.43
2022-10-07T05:04:04.760Z,9.41
2022-10-07T05:06:35.562Z,9.42
2022-10-07T05:09:04.851Z,9.40
2022-10-07T05:11:37.679Z,9.37
2022-10-07T05:14:15.230Z,9.43
2022-10-07T05:16:44.681Z,9.45
2022-10-07T05:19:15.063Z,9.43
2022-10-07T05:21:45.090Z,9.41
2022-10-07T05:24:14.582Z,9.43
2022-10-07T05:26:44.699Z,9.41
2022-10-07T05:29:14.196Z,9.42
2022-10-07T05:31:49.432Z,9.44
2022-10-07T05:34:22.887Z,9.45
2022-10-07T05:36:52.834Z,9.47
2022-10-07T05:39:22.726Z,9.47
2022-10-07T05:41:55.859Z,9.46
2022-10-07T05:44:32.357Z,9.43
2022-10-07T05:47:04.836Z,9.42
2022-10-07T05:49:36.237Z,9.46
2022-10-07T05:52:07.945Z,9.46
2022-10-07T05:54:38.739Z,9.44
2022-10-07T05:57:09.005Z,9.46
2022-10-07T05:59:38.922Z,9.43
2022-10-07T06:02:12.079Z,9.40
2022-10-07T06:04:43.343Z,9.44
2022-10-07T06:07:19.523Z,9.47
2022-10-07T06:10:03.772Z,9.49
2022-10-07T06:12:46.695Z,9.49
2022-10-07T06:15:17.531Z,9.51
2022-10-07T06:17:50.364Z,9.55
2022-10-07T06:20:23.042Z,9.60
2022-10-07T06:22:59.031Z,9.65
2022-10-07T06:25:30.400Z,9.70
2022-10-07T06:28:01.868Z,9.77
2022-10-07T06:30:33.096Z,9.83
2022-10-07T06:33:04.706Z,9.86
2022-10-07T06:35:35.374Z,9.92
2022-10-07T06:38:05.526Z,9.96
2022-10-07T06:40:36.535Z,10.06
2022-10-07T06:43:06.451Z,10.14
2022-10-07T06:45:49.210Z,10.20
2022-10-07T06:48:19.459Z,10.30
2022-10-07T06:50:58.728Z,10.31
2022-10-07T06:53:31.418Z,10.50
2022-10-07T06:56:07.176Z,10.60
2022-10-07T06:58:38.682Z,10.76
2022-10-07T07:01:10.391Z,10.92
2022-10-07T07:03:40.666Z,11.14
2022-10-07T07:06:12.861Z,11.29
2022-10-07T07:08:46.175Z,11.46
2022-10-07T07:11:29.765Z,11.65
2022-10-07T07:14:03.676Z,11.95
2022-10-07T07:16:35.527Z,12.13
2022-10-07T07:19:09.067Z,12.28
2022-10-07T07:21:41.508Z,12.43
2022-10-07T07:24:15.531Z,12.63
2022-10-07T07:26:46.975Z,12.79
2022-10-07T07:29:17.896Z,12.90
2022-10-07T07:31:52.465Z,13.04
2022-10-07T07:34:25.200Z,13.12
2022-10-07T07:36:55.447Z,13.20
2022-10-07T07:39:29.847Z,13.39
2022-10-07T07:42:07.911Z,13.55
2022-10-07T07:44:40.484Z,13.78
2022-10-07T07:47:16.611Z,13.95
2022-10-07T07:49:47.444Z,14.15
2022-10-07T07:52:25.860Z,14.22
2022-10-07T07:54:59.790Z,14.40
2022-10-07T07:57:31.165Z,14.47
2022-10-07T08:00:05.671Z,14.61
2022-10-07T08:02:44.122Z,14.73
2022-10-07T08:05:23.942Z,14.81
2022-10-07T08:07:59.067Z,14.81
2022-10-07T08:10:30.423Z,14.94
2022-10-07T08:13:00.589Z,15.07
2022-10-07T08:15:31.026Z,15.16
2022-10-07T08:18:01.398Z,15.30
2022-10-07T08:20:32.047Z,15.37
2022-10-07T08:23:03.222Z,15.42
2022-10-07T08:25:35.107Z,15.48
2022-10-07T08:28:07.968Z,15.54
2022-10-07T08:30:39.039Z,15.64
2022-10-07T08:33:09.483Z,15.66
2022-10-07T08:35:40.407Z,15.66
2022-10-07T08:38:14.514Z,15.57
2022-10-07T08:40:53.463Z,15.56
2022-10-07T08:43:26.745Z,15.73
2022-10-07T08:46:00.199Z,15.92
2022-10-07T08:48:39.296Z,16.05
2022-10-07T08:51:20.327Z,16.21
2022-10-07T08:53:59.193Z,16.38
2022-10-07T08:56:32.390Z,16.50
2022-10-07T08:59:11.822Z,16.57
2022-10-07T09:02:09.575Z,16.75
2022-10-07T09:05:01.729Z,16.87
2022-10-07T09:07:55.201Z,16.97
2022-10-07T09:10:37.688Z,17.08
2022-10-07T09:13:10.710Z,17.21
2022-10-07T09:16:15.178Z,17.32
2022-10-07T09:18:54.767Z,17.45
2022-10-07T09:21:32.473Z,17.59
2022-10-07T09:24:30.818Z,17.68
2022-10-07T09:27:11.634Z,17.68
2022-10-07T09:29:42.029Z,17.65
2022-10-07T09:32:18.928Z,17.76
2022-10-07T09:34:49.744Z,17.80
2022-10-07T09:37:21.967Z,17.90
2022-10-07T09:39:57.355Z,18.01
2022-10-07T09:42:29.935Z,18.20
2022-10-07T09:45:03.050Z,18.47
2022-10-07T09:47:42.221Z,18.79
2022-10-07T09:50:33.966Z,19.06
2022-10-07T09:53:04.925Z,19.21
2022-10-07T09:55:42.113Z,19.26
2022-10-07T09:58:30.078Z,19.34
2022-10-07T10:01:02.545Z,19.31
2022-10-07T10:03:33.914Z,19.47
2022-10-07T10:06:06.764Z,19.74
2022-10-07T10:08:42.717Z,19.94
2022-10-07T10:11:21.975Z,20.18
2022-10-07T10:13:54.249Z,20.39
2022-10-07T10:16:27.762Z,20.44
2022-10-07T10:19:24.343Z,20.45
2022-10-07T10:21:59.606Z,20.45
2022-10-07T10:24:45.861Z,20.50
2022-10-07T10:27:25.959Z,20.62
2022-10-07T10:30:04.442Z,20.80
2022-10-07T10:33:01.289Z,20.88
2022-10-07T10:35:34.129Z,20.93
2022-10-07T10:38:27.707Z,20.88
2022-10-07T10:41:08.737Z,20.83
2022-10-07T10:44:10.845Z,20.94
2022-10-07T10:47:15.487Z,21.07
2022-10-07T10:50:14.217Z,21.12
2022-10-07T10:52:50.838Z,21.19
2022-10-07T10:55:33.603Z,21.24
2022-10-07T10:58:15.510Z,21.26
2022-10-07T11:01:08.918Z,21.22
2022-10-07T11:04:00.228Z,21.12
2022-10-07T11:06:35.681Z,20.92
2022-10-07T11:09:07.924Z,20.78
2022-10-07T11:11:39.090Z,20.77
2022-10-07T11:14:23.002Z,20.81
2022-10-07T11:16:58.623Z,20.90
2022-10-07T11:19:47.000Z,20.96
2022-10-07T11:22:22.014Z,20.93
2022-10-07T11:24:57.281Z,21.06
2022-10-07T11:27:32.861Z,21.17
2022-10-07T11:30:20.357Z,21.31
2022-10-07T11:32:56.211Z,21.28
2022-10-07T11:35:26.743Z,21.24
2022-10-07T11:38:15.501Z,21.31
2022-10-07T11:40:48.929Z,21.31
2022-10-07T11:43:28.369Z,21.57
2022-10-07T11:46:17.573Z,21.93
2022-10-07T11:48:57.511Z,22.10
2022-10-07T11:51:30.778Z,22.28
2022-10-07T11:54:07.146Z,22.38
2022-10-07T11:56:49.657Z,22.25
2022-10-07T11:59:35.239Z,21.99
2022-10-07T12:02:07.113Z,21.83
2022-10-07T12:04:39.885Z,21.84
2022-10-07T12:07:46.043Z,21.66
2022-10-07T12:10:30.181Z,21.64
2022-10-07T12:13:05.235Z,21.52
2022-10-07T12:15:45.289Z,21.48
2022-10-07T12:18:18.685Z,21.43
2022-10-07T12:20:55.051Z,21.39
2022-10-07T12:23:26.387Z,21.44
2022-10-07T12:26:05.048Z,21.49
2022-10-07T12:28:37.355Z,21.61
2022-10-07T12:31:08.868Z,21.67
2022-10-07T12:33:48.652Z,21.74
2022-10-07T12:36:24.957Z,21.82
2022-10-07T12:39:00.300Z,21.82
2022-10-07T12:41:33.632Z,21.80
2022-10-07T12:44:25.932Z,21.83
2022-10-07T12:46:57.490Z,21.76
2022-10-07T12:49:54.949Z,21.65
2022-10-07T12:52:46.361Z,21.52
2022-10-07T12:55:29.307Z,21.40
2022-10-07T12:58:16.413Z,21.40
2022-10-07T13:01:04.987Z,21.40
2022-10-07T13:04:09.317Z,21.36
2022-10-07T13:07:17.091Z,21.35
2022-10-07T13:10:07.590Z,21.27
2022-10-07T13:12:51.165Z,21.19
2022-10-07T13:15:41.425Z,21.15
2022-10-07T13:18:32.031Z,21.16
2022-10-07T13:21:22.967Z,21.06
2022-10-07T13:23:57.291Z,21.02
2022-10-07T13:26:29.164Z,20.95
2022-10-07T13:29:01.013Z,20.91
2022-10-07T13:31:33.432Z,20.92
2022-10-07T13:34:17.961Z,20.94
2022-10-07T13:36:47.250Z,20.85
2022-10-07T13:39:24.430Z,20.85
2022-10-07T13:41:59.433Z,20.94
2022-10-07T13:44:32.735Z,20.87
2022-10-07T13:47:04.804Z,20.86
2022-10-07T13:49:55.997Z,20.82
2022-10-07T13:52:39.635Z,20.80
2022-10-07T13:55:32.699Z,20.80
2022-10-07T13:58:06.450Z,20.76
2022-10-07T14:00:43.291Z,20.71
2022-10-07T14:03:20.083Z,20.65
2022-10-07T14:06:00.853Z,20.69
2022-10-07T14:08:31.776Z,20.61
2022-10-07T14:11:10.035Z,20.64
2022-10-07T14:13:39.528Z,20.59
2022-10-07T14:16:08.990Z,20.56
2022-10-07T14:18:38.307Z,20.46
2022-10-07T14:21:17.048Z,20.44
2022-10-07T14:23:48.833Z,20.36
2022-10-07T14:26:19.092Z,20.34
2022-10-07T14:28:48.688Z,20.29
2022-10-07T14:31:30.512Z,20.37
2022-10-07T14:34:12.353Z,20.31
2022-10-07T14:37:13.803Z,20.22
2022-10-07T14:39:51.193Z,20.29
2022-10-07T14:42:32.974Z,20.27
2022-10-07T14:45:08.299Z,20.24
2022-10-07T14:47:41.468Z,20.23
2022-10-07T14:50:11.319Z,20.19
2022-10-07T14:52:47.697Z,20.23
2022-10-07T14:55:29.135Z,20.21
2022-10-07T14:58:00.478Z,20.19
2022-10-07T15:00:32.897Z,20.17
2022-10-07T15:03:06.110Z,20.13
2022-10-07T15:05:35.490Z,20.11
2022-10-07T15:08:04.963Z,20.05
2022-10-07T15:10:34.858Z,20.01
2022-10-07T15:13:08.713Z,20.00
2022-10-07T15:15:46.199Z,19.97
2022-10-07T15:18:15.523Z,19.94
2022-10-07T15:20:44.911Z,19.89
2022-10-07T15:23:14.888Z,19.87
2022-10-07T15:25:44.695Z,19.92
2022-10-07T15:28:15.539Z,19.89
2022-10-07T15:30:45.031Z,19.80
2022-10-07T15:33:14.888Z,19.77
2022-10-07T15:35:46.322Z,19.79
2022-10-07T15:38:15.599Z,19.77
2022-10-07T15:40:56.357Z,19.70
2022-10-07T15:43:26.238Z,19.69
2022-10-07T15:45:55.834Z,19.64
2022-10-07T15:48:26.119Z,19.60
2022-10-07T15:50:56.394Z,19.56
2022-10-07T15:53:26.921Z,19.49
2022-10-07T15:55:58.893Z,19.42
2022-10-07T15:58:32.002Z,19.42
2022-10-07T16:01:05.404Z,19.40
2022-10-07T16:03:43.619Z,19.33
2022-10-07T16:06:17.421Z,19.26
2022-10-07T16:08:47.023Z,19.22
2022-10-07T16:11:17.238Z,19.16
2022-10-07T16:13:48.138Z,19.12
2022-10-07T16:16:23.434Z,19.06
2022-10-07T16:18:55.486Z,18.97
2022-10-07T16:21:30.600Z,18.89
2022-10-07T16:24:09.776Z,18.77
2022-10-07T16:26:39.488Z,18.70
2022-10-07T16:29:23.089Z,18.63
2022-10-07T16:31:59.149Z,18.48
2022-10-07T16:34:30.368Z,18.41
2022-10-07T16:37:01.028Z,18.31
2022-10-07T16:39:30.324Z,18.22
2022-10-07T16:41:59.989Z,18.16
2022-10-07T16:44:29.776Z,18.06
2022-10-07T16:46:59.565Z,18.02
2022-10-07T16:49:30.414Z,17.92
2022-10-07T16:52:00.605Z,17.82
2022-10-07T16:54:31.958Z,17.72
2022-10-07T16:57:01.263Z,17.64
2022-10-07T16:59:30.879Z,17.51
2022-10-07T17:02:02.699Z,17.43
2022-10-07T17:04:32.302Z,17.36
2022-10-07T17:07:02.089Z,17.30
2022-10-07T17:09:31.416Z,17.24
2022-10-07T17:12:00.735Z,17.15
2022-10-07T17:14:31.693Z,17.10
2022-10-07T17:17:01.567Z,17.02
2022-10-07T17:19:31.661Z,16.98
2022-10-07T17:22:02.789Z,16.89
2022-10-07T17:24:34.835Z,16.84
2022-10-07T17:27:04.103Z,16.76
2022-10-07T17:29:34.298Z,16.66
2022-10-07T17:32:04.158Z,16.64
2022-10-07T17:34:34.345Z,16.60
2022-10-07T17:37:03.611Z,16.54
2022-10-07T17:39:33.681Z,16.52
2022-10-07T17:42:03.019Z,16.43
2022-10-07T17:44:35.270Z,16.38
2022-10-07T17:47:05.331Z,16.32
2022-10-07T17:49:35.022Z,16.24
2022-10-07T17:52:04.336Z,16.17
2022-10-07T17:54:33.736Z,16.15
2022-10-07T17:57:04.384Z,16.09
2022-10-07T17:59:34.038Z,16.03
2022-10-07T18:02:03.356Z,16.00
2022-10-07T18:04:32.669Z,15.94
2022-10-07T18:07:01.962Z,15.93
2022-10-07T18:09:31.245Z,15.91
2022-10-07T18:12:13.028Z,15.86
2022-10-07T18:14:54.774Z,15.79
2022-10-07T18:17:25.168Z,15.75
2022-10-07T18:19:54.787Z,15.72
2022-10-07T18:22:24.393Z,15.73
2022-10-07T18:24:57.132Z,15.62
2022-10-07T18:27:27.600Z,15.65
2022-10-07T18:29:57.821Z,15.61
2022-10-07T18:32:27.635Z,15.56
2022-10-07T18:34:56.912Z,15.50
2022-10-07T18:37:26.391Z,15.43
2022-10-07T18:39:55.690Z,15.41
2022-10-07T18:42:25.000Z,15.36
2022-10-07T18:44:55.006Z,15.32
2022-10-07T18:47:24.693Z,15.33
2022-10-07T18:49:57.092Z,15.33
2022-10-07T18:52:26.368Z,15.32
2022-10-07T18:54:55.825Z,15.30
2022-10-07T18:57:25.156Z,15.27
2022-10-07T18:59:54.405Z,15.16
2022-10-07T19:02:23.690Z,15.27
2022-10-07T19:04:53.395Z,15.21
2022-10-07T19:07:22.654Z,15.16
2022-10-07T19:09:51.912Z,15.16
2022-10-07T19:12:33.648Z,15.10
2022-10-07T19:15:02.893Z,14.60
2022-10-07T19:17:32.167Z,14.90
2022-10-07T19:20:01.617Z,14.99
2022-10-07T19:22:30.892Z,14.98
2022-10-07T19:25:12.672Z,14.86
2022-10-07T19:27:41.907Z,14.85
2022-10-07T19:30:11.813Z,14.83
2022-10-07T19:32:41.119Z,14.80
2022-10-07T19:35:10.666Z,14.79
2022-10-07T19:37:42.009Z,14.75
2022-10-07T19:40:12.459Z,14.71
2022-10-07T19:42:41.837Z,14.62
2022-10-07T19:45:12.205Z,14.69
2022-10-07T19:47:41.493Z,14.66
2022-10-07T19:50:11.275Z,14.60
2022-10-07T19:52:40.557Z,14.60
2022-10-07T19:55:10.431Z,14.59
2022-10-07T19:57:40.019Z,14.55
2022-10-07T20:00:09.848Z,14.48
2022-10-07T20:02:41.594Z,14.47
2022-10-07T20:05:11.126Z,14.44
2022-10-07T20:07:40.348Z,14.43
2022-10-07T20:10:10.240Z,14.41
2022-10-07T20:12:39.988Z,14.39
2022-10-07T20:15:10.194Z,14.37
2022-10-07T20:17:39.602Z,14.32
2022-10-07T20:20:09.299Z,14.28
2022-10-07T20:22:38.568Z,14.24
2022-10-07T20:25:08.433Z,14.24
2022-10-07T20:27:37.819Z,14.23
2022-10-07T20:30:17.491Z,14.22
2022-10-07T20:32:47.740Z,14.20
2022-10-07T20:35:17.271Z,14.21
2022-10-07T20:37:46.588Z,14.16
2022-10-07T20:40:28.385Z,14.17
2022-10-07T20:42:58.735Z,14.15
2022-10-07T20:45:28.056Z,14.15
2022-10-07T20:47:59.635Z,14.12
2022-10-07T20:50:28.889Z,14.07
2022-10-07T20:52:58.170Z,14.08
2022-10-07T20:55:27.483Z,14.09
2022-10-07T20:57:56.807Z,14.06
2022-10-07T21:00:26.099Z,14.07
2022-10-07T21:02:55.477Z,14.06
2022-10-07T21:05:24.776Z,14.06
2022-10-07T21:07:54.911Z,13.93
2022-10-07T21:10:24.345Z,14.01
2022-10-07T21:12:53.694Z,13.97
2022-10-07T21:15:22.990Z,13.95
2022-10-07T21:17:52.255Z,13.95
2022-10-07T21:20:21.540Z,13.94
2022-10-07T21:22:52.176Z,13.92
2022-10-07T21:25:21.485Z,13.93
2022-10-07T21:27:50.755Z,13.91
2022-10-07T21:30:20.209Z,13.90
2022-10-07T21:32:50.116Z,13.91
2022-10-07T21:35:19.489Z,13.88
2022-10-07T21:37:48.758Z,13.88
2022-10-07T21:40:18.050Z,13.85
2022-10-07T21:42:47.649Z,13.86
2022-10-07T21:45:17.140Z,13.40
2022-10-07T21:47:46.390Z,13.86
2022-10-07T21:50:15.720Z,13.84
2022-10-07T21:52:45.302Z,13.84
2022-10-07T21:55:14.828Z,13.84
2022-10-07T21:57:44.065Z,13.87
2022-10-07T22:00:14.239Z,13.82
2022-10-07T22:02:43.634Z,13.87
2022-10-07T22:05:15.327Z,13.90
2022-10-07T22:08:02.563Z,13.92
2022-10-07T22:10:31.815Z,13.94
2022-10-07T22:13:01.062Z,13.94
2022-10-07T22:15:30.430Z,13.96
2022-10-07T22:17:59.760Z,13.96
2022-10-07T22:20:29.066Z,13.97
2022-10-07T22:23:00.059Z,14.01
2022-10-07T22:25:29.499Z,14.04
2022-10-07T22:27:58.922Z,14.06
2022-10-07T22:30:28.333Z,14.07
2022-10-07T22:32:57.731Z,14.09
2022-10-07T22:35:27.634Z,14.09
2022-10-07T22:37:58.765Z,14.11
2022-10-07T22:40:29.046Z,14.09
2022-10-07T22:42:58.391Z,14.08
2022-10-07T22:45:27.648Z,14.07
2022-10-07T22:47:56.880Z,14.08
2022-10-07T22:50:26.163Z,14.06
2022-10-07T22:52:56.852Z,14.03
2022-10-07T22:55:27.151Z,14.02
2022-10-07T22:57:56.519Z,14.03
2022-10-07T23:00:25.788Z,13.94
2022-10-07T23:02:56.399Z,13.98
2022-10-07T23:05:25.718Z,13.98
2022-10-07T23:07:55.347Z,13.96
2022-10-07T23:10:25.377Z,13.93
2022-10-07T23:12:54.756Z,13.95
2022-10-07T23:15:24.005Z,13.92
2022-10-07T23:17:53.272Z,13.93
2022-10-07T23:20:25.555Z,13.88
2022-10-07T23:22:54.781Z,14.05
2022-10-07T23:25:26.338Z,13.99
2022-10-07T23:27:55.621Z,14.14
2022-10-07T23:30:24.874Z,14.17
2022-10-07T23:32:54.120Z,14.24
2022-10-07T23:35:23.452Z,14.24
2022-10-07T23:37:54.064Z,14.26
2022-10-07T23:40:23.896Z,14.32
2022-10-07T23:42:53.173Z,14.33
2022-10-07T23:45:22.419Z,14.33
2022-10-07T23:47:51.697Z,14.31
2022-10-07T23:50:21.045Z,14.37
2022-10-07T23:52:50.389Z,14.40
2022-10-07T23:55:19.755Z,14.43
2022-10-07T23:57:49.047Z,14.40
